Time;durP1;ratioP1;P1;durP2;ratioP2;P2;SDS_P1;SDS_P2;PMS_P1;PMS_P2;Temp;Humidity;BMP_temperature;BMP_pressure;BME280_temperature;BME280_humidity;BME280_pressure;Samples;Min_cycle;Max_cycle;Signal;HPM_P1;HPM_P2
2023/05/24 00:01:28;;;;;;;25.50;4.13;;;7.40;99.90;;;;;;5081647;28;20508;-74
2023/05/24 00:04:00;;;;;;;22.52;3.83;;;7.40;99.90;;;;;;5099070;28;20044;-74
2023/05/24 00:06:26;;;;;;;17.15;3.00;;;7.40;99.90;;;;;;5117750;28;20082;-74
2023/05/24 00:08:52;;;;;;;14.75;3.10;;;7.30;99.90;;;;;;5098869;28;20043;-75
2023/05/24 00:11:19;;;;;;;25.00;3.05;;;7.40;99.90;;;;;;5117736;28;20126;-75
2023/05/24 00:13:44;;;;;;;15.52;3.30;;;7.30;99.90;;;;;;5116880;28;20035;-75
2023/05/24 00:16:10;;;;;;;22.42;3.15;;;7.30;99.90;;;;;;5099754;28;20039;-75
2023/05/24 00:18:39;;;;;;;20.73;3.80;;;7.20;99.90;;;;;;5098283;28;20035;-75
2023/05/24 00:21:08;;;;;;;23.52;3.42;;;7.20;99.90;;;;;;5116831;28;20093;-80
2023/05/24 00:23:35;;;;;;;18.65;3.42;;;7.20;99.90;;;;;;5098593;28;20050;-74
2023/05/24 00:26:02;;;;;;;20.40;3.92;;;7.20;99.90;;;;;;5116821;28;20062;-75
2023/05/24 00:28:28;;;;;;;22.00;3.22;;;7.30;99.90;;;;;;5116738;28;20058;-74
2023/05/24 00:30:54;;;;;;;21.17;3.47;;;7.40;99.90;;;;;;5064764;28;20126;-74
2023/05/24 00:33:22;;;;;;;24.95;3.80;;;7.40;99.90;;;;;;5097845;28;20048;-74
2023/05/24 00:35:57;;;;;;;17.17;3.40;;;7.40;99.90;;;;;;5081921;28;20127;-75
2023/05/24 00:38:27;;;;;;;17.70;3.78;;;7.50;99.90;;;;;;5082660;28;20047;-74
2023/05/24 00:40:55;;;;;;;25.90;4.10;;;7.50;99.90;;;;;;5116605;28;20122;-73
2023/05/24 00:43:21;;;;;;;24.05;4.28;;;7.50;99.90;;;;;;5116259;28;20043;-74
2023/05/24 00:45:47;;;;;;;20.42;3.63;;;7.50;99.90;;;;;;5116833;28;20409;-74
2023/05/24 00:48:13;;;;;;;23.35;4.05;;;7.50;99.90;;;;;;5116374;28;20103;-74
2023/05/24 00:50:39;;;;;;;15.30;3.40;;;7.50;99.90;;;;;;5098703;28;20043;-75
2023/05/24 00:53:06;;;;;;;22.67;4.10;;;7.50;99.90;;;;;;5116280;28;20039;-75
2023/05/24 00:55:35;;;;;;;24.80;4.00;;;7.50;99.90;;;;;;5098267;28;20055;-74
2023/05/24 00:58:02;;;;;;;22.00;4.45;;;7.50;99.90;;;;;;5116120;28;20043;-73
2023/05/24 01:00:28;;;;;;;26.63;4.65;;;7.60;99.90;;;;;;5097928;28;20043;-75
2023/05/24 01:02:54;;;;;;;25.13;3.85;;;7.60;99.90;;;;;;5116380;28;20055;-74
2023/05/24 01:05:22;;;;;;;26.92;4.95;;;7.60;99.90;;;;;;5115850;28;20441;-72
2023/05/24 01:07:57;;;;;;;24.98;4.53;;;7.60;99.90;;;;;;5098466;28;20047;-73
2023/05/24 01:10:31;;;;;;;18.42;3.65;;;7.70;99.90;;;;;;5116044;28;20050;-74
2023/05/24 01:13:19;;;;;;;26.10;4.43;;;7.80;99.90;;;;;;5081640;28;20075;-73
2023/05/24 01:15:51;;;;;;;25.30;3.70;;;;;;;;;;5116580;28;20377;-74
2023/05/24 01:18:24;;;;;;;22.83;3.97;;;;;;;;;;5098395;28;20039;-72
2023/05/24 01:20:55;;;;;;;32.38;4.22;;;;;;;;;;5116329;28;20454;-73
2023/05/24 01:23:38;;;;;;;28.45;4.50;;;;;;;;;;5115858;28;20047;-74
2023/05/24 01:26:04;;;;;;;20.67;4.13;;;;;;;;;;5115622;28;20051;-72
2023/05/24 01:28:33;;;;;;;28.23;4.20;;;;;;;;;;5081115;28;20052;-73
2023/05/24 01:31:00;;;;;;;30.75;4.80;;;;;;;;;;5080209;28;20074;-73
2023/05/24 01:33:26;;;;;;;24.38;4.25;;;;;;;;;;5097192;28;20051;-74
2023/05/24 01:35:52;;;;;;;31.08;4.05;;;;;;;;;;5098354;28;20043;-71
2023/05/24 01:38:18;;;;;;;28.58;4.13;;;;;;;;;;5115828;28;20097;-78
2023/05/24 01:40:46;;;;;;;22.60;3.83;;;;;;;;;;5080655;28;20055;-71
2023/05/24 01:43:18;;;;;;;24.00;3.83;;;;;;;;;;5097242;28;20487;-74
2023/05/24 01:45:50;;;;;;;23.75;4.70;;;;;;;;;;5097339;28;20039;-73
2023/05/24 01:48:21;;;;;;;28.73;4.55;;;;;;;;;;5115573;28;20043;-72
2023/05/24 01:51:08;;;;;;;32.33;4.93;;;;;;;;;;5115605;28;20043;-73
2023/05/24 01:53:34;;;;;;;25.33;4.47;;;;;;;;;;5115623;28;20066;-75
2023/05/24 01:56:01;;;;;;;34.63;5.70;;;;;;;;;;5115578;28;20047;-74
2023/05/24 01:58:27;;;;;;;;;;;;;;;;;;5116144;28;20056;-73
2023/05/24 02:00:54;;;;;;;27.57;4.83;;;;;;;;;;5097048;28;19926;-75
2023/05/24 02:03:20;;;;;;;25.30;4.10;;;;;;;;;;5116008;28;20052;-73
2023/05/24 02:05:47;;;;;;;26.33;4.63;;;;;;;;;;5097235;28;20301;-72
2023/05/24 02:08:13;;;;;;;25.73;4.03;;;;;;;;;;5097599;28;20477;-73
2023/05/24 02:10:39;;;;;;;23.42;3.78;;;;;;;;;;5064855;28;20454;-72
2023/05/24 02:13:06;;;;;;;24.90;4.20;;;;;;;;;;5096900;28;20443;-73
2023/05/24 02:15:32;;;;;;;27.80;5.28;;;;;;;;;;5115867;28;20039;-72
2023/05/24 02:18:00;;;;;;;30.15;4.43;;;;;;;;;;5098016;28;20047;-74
2023/05/24 02:20:27;;;;;;;28.00;4.15;;;;;;;;;;5115705;28;20055;-77
2023/05/24 02:22:53;;;;;;;;;;;;;;;;;;5118912;28;20039;-73
2023/05/24 02:25:19;;;;;;;34.03;5.57;;;;;;;;;;5081694;28;19927;-74
2023/05/24 02:27:46;;;;;;;30.83;5.18;;;;;;;;;;5114756;28;20173;-74
2023/05/24 02:30:12;;;;;;;;;;;;;;;;;;5096672;28;20476;-73
2023/05/24 02:32:38;;;;;;;32.83;4.77;;;;;;;;;;5114815;28;20035;-74
2023/05/24 02:35:06;;;;;;;34.55;6.18;;;;;;;;;;5114439;28;20181;-72
2023/05/24 02:37:32;;;;;;;26.05;3.95;;;;;;;;;;5096234;28;20051;-73
2023/05/24 02:39:58;;;;;;;31.98;5.68;;;;;;;;;;5114344;28;20047;-71
2023/05/24 02:42:24;;;;;;;33.22;5.07;;;;;;;;;;5096326;28;20117;-73
2023/05/24 02:44:51;;;;;;;23.33;4.22;;;;;;;;;;5114439;28;20404;-73
2023/05/24 02:47:20;;;;;;;32.22;5.07;;;;;;;;;;5114241;28;20117;-72
2023/05/24 02:49:46;;;;;;;24.02;4.13;;;;;;;;;;5114336;28;20120;-74
2023/05/24 02:52:13;;;;;;;31.63;4.75;;;;;;;;;;5113981;28;20040;-73
2023/05/24 02:54:39;;;;;;;20.98;4.53;;;7.70;99.90;;;;;;5079570;28;20462;-71
2023/05/24 02:57:07;;;;;;;23.42;3.70;;;7.60;99.90;;;;;;5096077;28;20086;-72
2023/05/24 02:59:35;;;;;;;26.52;3.83;;;7.60;99.90;;;;;;5096221;28;20047;-74
2023/05/24 03:02:01;;;;;;;26.65;4.80;;;7.60;99.90;;;;;;5113836;28;20060;-74
2023/05/24 03:04:27;;;;;;;25.80;5.15;;;7.80;99.90;;;;;;5113985;28;20044;-74
2023/05/24 03:06:53;;;;;;;26.77;4.50;;;7.50;99.90;;;;;;5115079;28;20098;-72
2023/05/24 03:09:19;;;;;;;24.05;4.13;;;7.60;99.90;;;;;;5096584;28;20051;-73
2023/05/24 03:11:44;;;;;;;25.50;5.28;;;7.70;99.90;;;;;;5115362;28;20047;-74
2023/05/24 03:14:10;;;;;;;29.35;5.13;;;7.60;99.90;;;;;;5114182;28;20500;-72
2023/05/24 03:16:36;;;;;;;30.13;5.15;;;7.70;99.90;;;;;;5114844;28;20044;-74
2023/05/24 03:19:03;;;;;;;27.83;4.93;;;7.80;99.90;;;;;;5096007;28;20044;-72
2023/05/24 03:21:29;;;;;;;26.27;4.90;;;7.80;99.90;;;;;;5096147;28;20051;-74
2023/05/24 03:23:54;;;;;;;28.25;5.90;;;7.80;99.90;;;;;;5080058;28;20050;-72
2023/05/24 03:26:20;;;;;;;27.35;4.65;;;7.60;99.90;;;;;;5097119;28;20382;-73
2023/05/24 03:28:46;;;;;;;35.45;5.15;;;7.80;99.90;;;;;;5079546;28;20043;-73
2023/05/24 03:31:12;;;;;;;34.03;4.70;;;7.70;99.90;;;;;;5097089;28;20040;-72
2023/05/24 03:33:38;;;;;;;21.73;4.35;;;7.70;99.90;;;;;;5097363;28;20054;-74
2023/05/24 03:36:05;;;;;;;28.52;4.88;;;7.80;99.90;;;;;;5096427;28;20051;-73
2023/05/24 03:38:32;;;;;;;27.30;3.72;;;7.60;99.90;;;;;;5114060;28;20074;-73
2023/05/24 03:40:58;;;;;;;23.90;3.83;;;7.60;99.90;;;;;;5080183;28;20083;-74
2023/05/24 03:43:24;;;;;;;21.07;4.60;;;7.60;99.90;;;;;;5096539;28;20044;-71
2023/05/24 03:45:50;;;;;;;35.38;4.70;;;7.60;99.90;;;;;;5096210;28;20288;-73
2023/05/24 03:48:19;;;;;;;33.35;5.20;;;7.80;99.90;;;;;;5096240;28;20054;-74
2023/05/24 03:50:45;;;;;;;28.55;4.25;;;7.50;99.90;;;;;;5096045;28;20044;-73
2023/05/24 03:53:11;;;;;;;34.47;4.20;;;7.50;99.90;;;;;;5096325;28;20059;-72
2023/05/24 03:55:37;;;;;;;23.35;3.65;;;7.60;99.90;;;;;;5096437;28;20051;-74
2023/05/24 03:58:02;;;;;;;23.73;3.80;;;7.70;99.90;;;;;;5114848;28;20052;-72
2023/05/24 04:00:28;;;;;;;30.05;4.32;;;7.70;99.90;;;;;;5115576;28;20124;-72
2023/05/24 04:02:54;;;;;;;34.75;4.70;;;7.60;99.90;;;;;;5115340;28;20056;-74
2023/05/24 04:05:23;;;;;;;20.25;3.17;;;7.50;99.90;;;;;;5115653;28;20051;-72
2023/05/24 04:07:49;;;;;;;21.73;4.15;;;7.80;99.90;;;;;;5097429;28;20048;-72
2023/05/24 04:10:15;;;;;;;27.13;4.40;;;7.80;99.90;;;;;;5100770;28;20087;-72
2023/05/24 04:12:41;;;;;;;26.27;4.75;;;7.80;99.90;;;;;;5118884;28;20047;-72
2023/05/24 04:15:07;;;;;;;24.60;4.22;;;7.70;99.90;;;;;;5118090;28;20052;-72
2023/05/24 04:17:33;;;;;;;29.20;4.63;;;7.70;99.90;;;;;;5102625;28;20389;-73
2023/05/24 04:20:00;;;;;;;22.08;4.32;;;8.10;99.90;;;;;;5103074;28;20060;-71
2023/05/24 04:22:26;;;;;;;24.70;4.50;;;7.70;99.90;;;;;;5099199;28;20049;-72
2023/05/24 04:24:51;;;;;;;22.00;3.92;;;7.90;99.90;;;;;;5098830;28;20040;-74
2023/05/24 04:27:17;;;;;;;26.38;4.85;;;7.70;99.90;;;;;;5081721;28;20048;-72
2023/05/24 04:29:52;;;;;;;30.23;4.53;;;7.80;99.90;;;;;;5116849;28;20053;-73
2023/05/24 04:32:18;;;;;;;24.13;4.32;;;8.00;99.90;;;;;;5116605;28;20123;-73
2023/05/24 04:34:45;;;;;;;25.42;4.43;;;7.90;99.90;;;;;;5116536;28;20104;-72
2023/05/24 04:37:12;;;;;;;23.00;4.10;;;7.80;99.90;;;;;;5116486;28;20124;-72
2023/05/24 04:39:39;;;;;;;24.70;3.97;;;8.00;99.90;;;;;;5098550;28;20083;-71
2023/05/24 04:42:06;;;;;;;33.85;4.40;;;7.90;99.90;;;;;;5116189;28;20043;-73
2023/05/24 04:44:31;;;;;;;26.83;4.50;;;8.00;99.90;;;;;;5116181;28;20040;-72
2023/05/24 04:46:57;;;;;;;24.23;4.07;;;8.10;99.90;;;;;;5098102;28;20101;-71
2023/05/24 04:49:23;;;;;;;26.95;4.13;;;8.10;99.90;;;;;;5116599;28;20050;-72
2023/05/24 04:51:48;;;;;;;24.15;3.95;;;8.40;99.90;;;;;;5081439;28;20101;-72
2023/05/24 04:54:16;;;;;;;21.92;3.70;;;8.40;99.90;;;;;;5116279;28;20040;-73
2023/05/24 04:56:42;;;;;;;23.00;4.60;;;8.30;99.90;;;;;;5098026;28;20040;-73
2023/05/24 04:59:08;;;;;;;21.85;3.83;;;8.50;99.90;;;;;;5097884;28;20050;-73
2023/05/24 05:01:34;;;;;;;24.35;3.70;;;8.60;99.90;;;;;;5097607;28;20409;-71
2023/05/24 05:04:03;;;;;;;24.98;3.83;;;8.80;99.90;;;;;;5117131;28;20398;-72
2023/05/24 05:06:28;;;;;;;23.17;4.57;;;8.80;99.90;;;;;;5116215;28;20105;-73
2023/05/24 05:08:54;;;;;;;25.42;4.70;;;8.90;99.90;;;;;;5116057;28;20043;-74
2023/05/24 05:11:20;;;;;;;25.00;4.10;;;9.00;99.90;;;;;;5116103;28;20044;-74
2023/05/24 05:13:45;;;;;;;21.55;4.53;;;9.10;99.90;;;;;;5116017;28;20401;-75
2023/05/24 05:16:12;;;;;;;25.98;3.33;;;9.30;99.90;;;;;;5116356;28;20043;-73
2023/05/24 05:18:38;;;;;;;22.45;3.70;;;9.30;99.90;;;;;;5097821;28;20108;-73
2023/05/24 05:21:03;;;;;;;28.17;3.60;;;9.50;99.90;;;;;;5115700;28;20047;-73
2023/05/24 05:23:30;;;;;;;25.38;3.53;;;9.50;99.90;;;;;;5116123;28;20039;-73
2023/05/24 05:25:56;;;;;;;24.50;3.33;;;9.50;99.90;;;;;;5115944;28;20122;-77
2023/05/24 05:28:21;;;;;;;28.42;4.93;;;9.80;99.90;;;;;;5097588;28;20043;-73
2023/05/24 05:30:47;;;;;;;21.63;3.45;;;9.80;99.90;;;;;;5097548;28;20046;-72
2023/05/24 05:33:13;;;;;;;20.98;2.85;;;9.70;99.90;;;;;;5097701;28;20039;-71
2023/05/24 05:35:38;;;;;;;23.38;3.05;;;9.60;99.90;;;;;;5115609;28;20044;-73
2023/05/24 05:38:04;;;;;;;21.38;3.58;;;9.80;99.90;;;;;;5114862;28;20166;-72
2023/05/24 05:40:30;;;;;;;24.50;3.05;;;9.70;99.90;;;;;;5115824;28;20107;-73
2023/05/24 05:42:56;;;;;;;31.52;3.28;;;9.60;99.90;;;;;;5097597;28;20095;-74
2023/05/24 05:45:22;;;;;;;23.27;3.10;;;9.70;99.90;;;;;;5114946;28;20035;-73
2023/05/24 05:47:48;;;;;;;24.05;3.30;;;9.80;99.90;;;;;;5080245;28;20055;-74
2023/05/24 05:50:14;;;;;;;28.50;3.33;;;9.90;99.90;;;;;;5097474;28;20051;-72
2023/05/24 05:52:40;;;;;;;24.23;3.80;;;10.00;99.90;;;;;;5114782;28;20400;-72
2023/05/24 05:55:06;;;;;;;26.02;3.85;;;10.10;99.90;;;;;;5079731;28;20087;-72
2023/05/24 05:57:32;;;;;;;26.55;4.15;;;10.10;99.90;;;;;;5096397;28;20105;-72
2023/05/24 05:59:57;;;;;;;17.10;2.70;;;10.30;99.90;;;;;;5114631;28;20083;-73
2023/05/24 06:02:23;;;;;;;15.88;2.80;;;10.60;99.90;;;;;;5092667;28;20055;-72
2023/05/24 06:04:49;;;;;;;21.77;3.20;;;10.70;99.90;;;;;;5092814;28;20052;-72
2023/05/24 06:07:15;;;;;;;23.67;4.65;;;10.80;99.90;;;;;;5094102;28;20044;-72
2023/05/24 06:09:41;;;;;;;20.15;3.00;;;10.90;99.90;;;;;;5076199;28;20113;-72
2023/05/24 06:12:06;;;;;;;17.95;3.13;;;11.00;99.90;;;;;;5094497;28;20083;-74
2023/05/24 06:14:33;;;;;;;14.73;2.72;;;11.20;99.90;;;;;;5093835;28;20112;-72
2023/05/24 06:16:59;;;;;;;19.58;2.75;;;11.30;99.90;;;;;;5092859;28;20066;-72
2023/05/24 06:19:25;;;;;;;22.25;3.08;;;11.30;99.90;;;;;;5093969;28;20126;-70
2023/05/24 06:21:51;;;;;;;18.67;3.05;;;11.40;99.90;;;;;;5076454;28;20088;-71
2023/05/24 06:24:21;;;;;;;20.90;3.42;;;11.30;99.90;;;;;;5092388;28;20497;-72
2023/05/24 06:26:47;;;;;;;25.88;2.70;;;11.30;99.90;;;;;;5075580;28;20101;-72
2023/05/24 06:29:13;;;;;;;15.60;2.65;;;11.20;99.90;;;;;;5093100;28;20338;-72
2023/05/24 06:31:39;;;;;;;19.05;2.83;;;11.40;99.90;;;;;;5093181;28;20092;-72
2023/05/24 06:34:05;;;;;;;21.83;3.87;;;11.40;99.90;;;;;;5092653;28;20044;-73
2023/05/24 06:36:40;;;;;;;27.15;2.85;;;11.50;99.90;;;;;;5093414;28;20279;-72
2023/05/24 06:39:05;;;;;;;18.85;3.35;;;11.60;99.90;;;;;;5077306;28;20044;-73
2023/05/24 06:41:31;;;;;;;20.80;2.80;;;11.60;99.90;;;;;;5092275;28;20047;-73
2023/05/24 06:43:57;;;;;;;18.63;3.08;;;11.70;99.90;;;;;;5093505;28;20131;-73
2023/05/24 06:46:22;;;;;;;18.52;3.08;;;11.80;99.90;;;;;;5093382;28;20043;-72
2023/05/24 06:48:48;;;;;;;19.48;2.70;;;11.80;99.90;;;;;;5094095;28;20053;-72
2023/05/24 06:51:14;;;;;;;12.95;2.72;;;11.80;99.90;;;;;;5075474;28;20040;-74
2023/05/24 06:53:40;;;;;;;18.20;2.88;;;12.00;99.90;;;;;;5075677;28;20080;-72
2023/05/24 06:56:08;;;;;;;18.17;2.97;;;12.00;99.90;;;;;;5092962;28;20090;-72
2023/05/24 06:58:34;;;;;;;21.67;3.08;;;12.10;99.90;;;;;;5092061;28;20043;-72
2023/05/24 07:01:00;;;;;;;18.73;3.30;;;12.00;99.90;;;;;;5093399;28;20050;-70
2023/05/24 07:03:25;;;;;;;22.20;2.97;;;12.00;99.90;;;;;;5091824;28;20139;-72
2023/05/24 07:05:51;;;;;;;18.35;2.35;;;12.20;99.90;;;;;;5092605;28;20071;-70
2023/05/24 07:08:17;;;;;;;22.08;3.42;;;12.10;99.90;;;;;;5091951;28;20040;-72
2023/05/24 07:10:43;;;;;;;15.63;2.50;;;12.20;99.90;;;;;;5092602;28;20059;-71
2023/05/24 07:13:12;;;;;;;20.88;3.22;;;12.20;99.90;;;;;;5092036;28;20044;-73
2023/05/24 07:15:42;;;;;;;18.58;2.72;;;12.20;99.90;;;;;;5092256;28;20055;-73
2023/05/24 07:18:08;;;;;;;23.15;3.35;;;12.20;99.90;;;;;;5092284;28;20051;-72
2023/05/24 07:20:34;;;;;;;13.45;2.50;;;12.40;99.90;;;;;;5091553;28;20040;-72
2023/05/24 07:23:00;;;;;;;18.83;3.10;;;12.50;99.90;;;;;;5093855;28;20191;-71
2023/05/24 07:25:26;;;;;;;16.92;2.83;;;12.50;99.90;;;;;;5093060;28;20062;-71
2023/05/24 07:27:52;;;;;;;18.75;2.50;;;12.40;99.90;;;;;;5092735;28;20559;-73
2023/05/24 07:30:18;;;;;;;18.92;2.50;;;12.60;99.90;;;;;;5092974;28;20056;-72
2023/05/24 07:32:44;;;;;;;20.48;3.38;;;12.70;99.90;;;;;;5092945;28;20079;-72
2023/05/24 07:35:15;;;;;;;17.92;2.85;;;12.90;99.90;;;;;;5093525;28;20049;-73
2023/05/24 07:37:41;;;;;;;10.98;2.90;;;13.20;99.90;;;;;;5093398;28;20048;-71
2023/05/24 07:40:09;;;;;;;17.13;3.33;;;13.10;99.90;;;;;;5091986;28;20388;-72
2023/05/24 07:42:35;;;;;;;12.70;2.22;;;13.20;99.90;;;;;;5093783;28;20499;-70
2023/05/24 07:45:01;;;;;;;16.20;3.15;;;13.50;99.90;;;;;;5096094;28;20040;-72
2023/05/24 07:47:27;;;;;;;16.55;3.10;;;13.70;99.90;;;;;;5096477;28;20547;-72
2023/05/24 07:49:53;;;;;;;15.55;2.47;;;13.50;99.90;;;;;;5078931;28;20052;-72
2023/05/24 07:52:19;;;;;;;20.77;3.38;;;13.40;99.90;;;;;;5096719;28;20040;-73
2023/05/24 07:54:45;;;;;;;13.77;2.35;;;13.40;99.90;;;;;;5095975;28;20044;-72
2023/05/24 07:57:11;;;;;;;14.90;2.30;;;13.30;99.90;;;;;;5095429;28;20129;-71
2023/05/24 07:59:37;;;;;;;14.88;2.60;;;13.30;99.90;;;;;;5096220;28;20501;-70
2023/05/24 08:02:04;;;;;;;14.88;2.33;;;13.20;99.90;;;;;;5095011;28;20102;-74
2023/05/24 08:04:32;;;;;;;14.30;2.95;;;13.30;99.90;;;;;;5095080;28;20047;-71
2023/05/24 08:07:00;;;;;;;24.35;3.03;;;13.60;99.90;;;;;;5096578;28;20125;-71
2023/05/24 08:09:28;;;;;;;18.33;2.30;;;13.50;99.90;;;;;;5095312;28;20442;-69
2023/05/24 08:11:55;;;;;;;16.60;2.28;;;13.50;99.90;;;;;;5095110;28;20044;-69
2023/05/24 08:14:22;;;;;;;17.38;2.88;;;13.50;99.90;;;;;;5096141;28;20055;-71
2023/05/24 08:16:48;;;;;;;13.68;3.15;;;13.50;99.90;;;;;;5096168;28;20473;-69
2023/05/24 08:19:13;;;;;;;15.75;2.30;;;13.50;99.90;;;;;;5094553;28;20051;-70
2023/05/24 08:21:41;;;;;;;14.77;2.47;;;13.40;99.90;;;;;;5095994;28;20096;-72
2023/05/24 08:24:07;;;;;;;13.10;2.05;;;13.60;99.90;;;;;;5094682;28;20494;-71
2023/05/24 08:26:32;;;;;;;11.13;1.65;;;13.60;99.90;;;;;;5095139;28;20470;-71
2023/05/24 08:28:58;;;;;;;12.90;2.20;;;13.70;99.90;;;;;;5078932;28;20047;-72
2023/05/24 08:31:25;;;;;;;14.55;2.28;;;13.70;99.90;;;;;;5094664;28;20104;-72
2023/05/24 08:33:51;;;;;;;10.20;1.87;;;13.80;99.90;;;;;;5078197;28;20135;-71
2023/05/24 08:36:17;;;;;;;14.25;2.60;;;13.90;99.90;;;;;;5078040;28;20340;-71
2023/05/24 08:38:43;;;;;;;9.23;1.50;;;14.00;99.90;;;;;;5095730;28;20477;-69
2023/05/24 08:41:10;;;;;;;13.07;2.00;;;14.10;99.90;;;;;;5094533;28;20052;-73
2023/05/24 08:43:37;;;;;;;13.20;2.20;;;13.90;99.90;;;;;;5095241;28;20508;-74
2023/05/24 08:46:04;;;;;;;14.20;2.30;;;14.00;99.90;;;;;;5094176;28;20043;-72
2023/05/24 08:48:30;;;;;;;9.35;1.65;;;13.90;99.90;;;;;;5095605;28;20060;-71
2023/05/24 08:50:57;;;;;;;10.73;1.33;;;14.10;99.90;;;;;;5094537;28;20044;-71
2023/05/24 08:53:24;;;;;;;15.57;2.35;;;;;;;;;;5096062;28;20314;-72
2023/05/24 08:55:52;;;;;;;10.45;1.70;;;14.20;99.90;;;;;;5093564;28;20048;-72
2023/05/24 08:58:18;;;;;;;11.38;2.17;;;14.20;99.90;;;;;;5094617;28;20052;-71
2023/05/24 09:00:45;;;;;;;9.23;1.65;;;14.10;99.90;;;;;;5095318;28;20063;-71
2023/05/24 09:03:12;;;;;;;8.73;1.27;;;14.10;99.90;;;;;;5094004;28;20189;-72
2023/05/24 09:05:39;;;;;;;12.40;1.98;;;;;;;;;;5095221;28;20284;-70
2023/05/24 09:08:05;;;;;;;13.15;2.08;;;;;;;;;;5095157;28;20052;-71
2023/05/24 09:10:33;;;;;;;7.50;1.67;;;;;;;;;;5077041;28;20044;-71
2023/05/24 09:12:58;;;;;;;;;;;;;;;;;;5095703;28;20047;-71
2023/05/24 09:15:25;;;;;;;8.90;1.63;;;;;;;;;;5094007;28;19920;-71
2023/05/24 09:17:51;;;;;;;10.10;1.87;;;;;;;;;;5094666;28;20058;-70
2023/05/24 09:20:17;;;;;;;11.95;1.98;;;;;;;;;;5095023;28;20051;-72
2023/05/24 09:22:45;;;;;;;14.70;1.95;;;;;;;;;;5094626;28;20044;-72
2023/05/24 09:25:13;;;;;;;10.60;1.60;;;;;;;;;;5094974;28;20059;-73
2023/05/24 09:27:39;;;;;;;9.60;1.92;;;;;;;;;;5094852;28;20043;-73
2023/05/24 09:30:11;;;;;;;12.27;2.05;;;;;;;;;;5093772;28;20140;-72
2023/05/24 09:32:37;;;;;;;8.18;2.08;;;;;;;;;;5094587;28;20063;-72
2023/05/24 09:35:07;;;;;;;10.70;1.60;;;;;;;;;;5094034;28;20100;-73
2023/05/24 09:37:37;;;;;;;12.75;1.80;;;;;;;;;;5094748;28;20059;-71
2023/05/24 09:40:05;;;;;;;11.18;1.98;;;;;;;;;;5093307;28;20044;-73
2023/05/24 09:42:32;;;;;;;11.52;2.28;;;;;;;;;;5094312;28;20060;-73
2023/05/24 09:45:00;;;;;;;16.30;1.65;;;;;;;;;;5094535;28;20048;-72
2023/05/24 09:47:29;;;;;;;13.25;2.00;;;;;;;;;;5094282;28;20537;-72
2023/05/24 09:49:56;;;;;;;8.50;1.33;;;;;;;;;;5093471;28;20083;-72
2023/05/24 09:52:22;;;;;;;12.17;1.90;;;;;;;;;;5094304;28;20063;-73
2023/05/24 09:54:48;;;;;;;14.15;1.60;;;;;;;;;;5094756;28;20329;-73
2023/05/24 09:57:17;;;;;;;8.40;1.92;;;;;;;;;;5093955;28;20036;-72
2023/05/24 09:59:44;;;;;;;12.82;1.88;;;;;;;;;;5094424;28;20044;-71
2023/05/24 10:02:11;;;;;;;8.47;1.77;;;;;;;;;;5102697;28;20048;-73
2023/05/24 10:04:39;;;;;;;9.55;1.58;;;;;;;;;;5114350;28;20112;-71
2023/05/24 10:07:06;;;;;;;9.57;1.52;;;;;;;;;;5112431;28;20047;-72
2023/05/24 10:09:34;;;;;;;10.60;1.38;;;15.50;99.90;;;;;;5113719;28;20096;-73
2023/05/24 10:12:07;;;;;;;11.82;2.30;;;15.60;99.90;;;;;;5095860;28;20048;-72
2023/05/24 10:14:37;;;;;;;7.65;1.50;;;15.30;99.90;;;;;;5095546;28;20048;-76
2023/05/24 10:17:04;;;;;;;12.13;2.05;;;15.50;99.90;;;;;;5062280;28;20135;-73
2023/05/24 10:19:33;;;;;;;;;;;15.30;99.90;;;;;;5113954;28;20044;-72
2023/05/24 10:22:01;;;;;;;11.82;2.03;;;15.70;99.90;;;;;;5113353;28;19964;-72
2023/05/24 10:24:41;;;;;;;7.22;1.27;;;15.40;99.90;;;;;;5078511;28;20047;-72
2023/05/24 10:27:14;;;;;;;11.55;1.38;;;15.70;99.90;;;;;;5096303;28;20376;-70
2023/05/24 10:29:45;;;;;;;8.98;1.80;;;15.60;99.90;;;;;;5096114;28;20366;-69
2023/05/24 10:32:17;;;;;;;9.75;1.63;;;15.50;99.90;;;;;;5095080;28;20492;-71
2023/05/24 10:34:45;;;;;;;12.30;1.60;;;15.60;99.90;;;;;;5094875;28;20054;-72
2023/05/24 10:37:11;;;;;;;9.80;1.65;;;15.90;99.90;;;;;;5095483;28;20132;-71
2023/05/24 10:39:37;;;;;;;9.05;1.65;;;16.10;99.90;;;;;;5094741;28;20043;-76
2023/05/24 10:42:06;;;;;;;8.30;1.48;;;15.90;99.90;;;;;;5113375;28;20043;-72
2023/05/24 10:44:32;;;;;;;9.00;1.80;;;15.60;99.90;;;;;;5094840;28;20039;-72
2023/05/24 10:47:10;;;;;;;12.77;1.77;;;15.70;99.90;;;;;;5094806;28;20047;-71
2023/05/24 10:49:57;;;;;;;9.40;2.10;;;15.90;99.90;;;;;;5095079;28;20393;-71
2023/05/24 10:52:34;;;;;;;7.13;1.80;;;15.90;99.90;;;;;;5094857;28;20039;-73
2023/05/24 10:55:08;;;;;;;10.10;2.10;;;15.70;99.90;;;;;;5112988;28;20078;-73
2023/05/24 10:57:38;;;;;;;12.52;2.42;;;15.50;99.90;;;;;;5094800;28;20043;-73
2023/05/24 11:00:26;;;;;;;12.30;2.20;;;15.40;99.90;;;;;;5113475;28;20039;-72
2023/05/24 11:03:07;;;;;;;9.27;2.33;;;15.20;99.90;;;;;;5053302;28;1190775;-72
2023/05/24 11:05:45;;;;;;;9.80;2.03;;;15.20;99.90;;;;;;5095626;28;20281;-73
2023/05/24 11:08:10;;;;;;;11.40;2.60;;;15.80;99.90;;;;;;5095600;28;20047;-71
2023/05/24 11:10:37;;;;;;;10.55;2.38;;;15.90;99.90;;;;;;5095457;28;20043;-70
2023/05/24 11:13:06;;;;;;;11.45;2.45;;;15.80;99.90;;;;;;5114358;28;20044;-72
2023/05/24 11:15:32;;;;;;;11.50;2.42;;;15.20;99.90;;;;;;5079196;28;20047;-74
2023/05/24 11:18:12;;;;;;;9.25;2.15;;;15.20;99.90;;;;;;5115183;28;20131;-71
2023/05/24 11:20:44;;;;;;;7.70;2.17;;;15.00;99.90;;;;;;5082856;28;20130;-72
2023/05/24 11:23:10;;;;;;;11.68;2.45;;;15.40;99.90;;;;;;5082934;28;20438;-72
2023/05/24 11:25:37;;;;;;;9.43;2.08;;;15.70;99.90;;;;;;5117624;28;20044;-70
2023/05/24 11:28:10;;;;;;;10.35;2.15;;;15.90;99.90;;;;;;5117564;28;20051;-72
2023/05/24 11:30:40;;;;;;;10.35;2.22;;;15.70;99.90;;;;;;5117555;28;20099;-71
2023/05/24 11:33:14;;;;;;;9.20;2.10;;;15.80;99.90;;;;;;5099566;28;20046;-71
2023/05/24 11:35:39;;;;;;;10.40;1.95;;;15.50;99.90;;;;;;5116764;28;20047;-72
2023/05/24 11:38:12;;;;;;;7.03;1.88;;;15.60;99.90;;;;;;5099045;28;20046;-70
2023/05/24 11:40:45;;;;;;;10.48;1.65;;;16.00;99.90;;;;;;5117719;28;20051;-71
2023/05/24 11:43:19;;;;;;;8.93;2.08;;;15.80;99.20;;;;;;5082293;28;20043;-72
2023/05/24 11:45:49;;;;;;;7.57;1.65;;;16.10;99.90;;;;;;5117285;28;20040;-78
2023/05/24 11:48:17;;;;;;;5.95;1.48;;;15.90;99.90;;;;;;5099437;28;20126;-72
2023/05/24 11:50:44;;;;;;;5.53;1.20;;;16.10;99.10;;;;;;5117186;28;20043;-71
2023/05/24 11:53:11;;;;;;;6.78;1.38;;;16.20;99.00;;;;;;5098855;28;20040;-72
2023/05/24 11:55:39;;;;;;;9.95;1.60;;;16.40;99.40;;;;;;5117553;28;20048;-70
2023/05/24 11:58:26;;;;;;;7.80;1.50;;;16.40;99.20;;;;;;5098658;28;20043;-71
2023/05/24 12:00:52;;;;;;;;;;;16.40;99.50;;;;;;5084726;28;20091;-71
2023/05/24 12:03:17;;;;;;;9.27;1.40;;;16.30;99.10;;;;;;5098211;28;19990;-71
2023/05/24 12:05:43;;;;;;;9.35;1.70;;;15.80;98.40;;;;;;5116896;28;20048;-72
2023/05/24 12:08:11;;;;;;;8.67;1.23;;;16.00;98.80;;;;;;5098876;28;20040;-70
2023/05/24 12:10:40;;;;;;;6.63;1.45;;;16.00;99.00;;;;;;5116794;28;20052;-73
2023/05/24 12:13:17;;;;;;;14.23;1.88;;;16.10;98.30;;;;;;5099318;28;20145;-71
2023/05/24 12:15:43;;;;;;;8.57;1.75;;;16.40;97.60;;;;;;5098512;28;20104;-71
2023/05/24 12:18:21;;;;;;;10.68;1.50;;;16.60;98.00;;;;;;5117106;28;20039;-71
2023/05/24 12:20:51;;;;;;;7.63;1.50;;;16.80;98.20;;;;;;5099305;28;20378;-71
2023/05/24 12:23:28;;;;;;;8.25;1.52;;;17.00;98.30;;;;;;5098344;28;20047;-71
2023/05/24 12:26:01;;;;;;;8.02;1.33;;;17.10;98.20;;;;;;5116448;28;20050;-72
2023/05/24 12:28:31;;;;;;;10.02;1.60;;;17.00;98.10;;;;;;5116536;28;20040;-72
2023/05/24 12:30:57;;;;;;;12.77;1.60;;;16.60;98.00;;;;;;5115847;28;20051;-71
2023/05/24 12:33:23;;;;;;;13.95;1.85;;;16.70;98.10;;;;;;5082261;28;20076;-72
2023/05/24 12:35:49;;;;;;;11.30;1.50;;;16.70;97.70;;;;;;5081482;28;20071;-73
2023/05/24 12:38:23;;;;;;;9.73;1.60;;;16.10;98.20;;;;;;5116144;28;20058;-71
2023/05/24 12:40:50;;;;;;;7.03;1.63;;;16.10;98.50;;;;;;5116274;28;20047;-71
2023/05/24 12:43:16;;;;;;;9.18;1.70;;;16.10;98.90;;;;;;5116593;28;20044;-71
2023/05/24 12:45:41;;;;;;;8.43;1.67;;;15.80;99.30;;;;;;5116183;28;20130;-71
2023/05/24 12:48:07;;;;;;;15.75;1.55;;;15.70;99.50;;;;;;5116007;28;20532;-71
2023/05/24 12:50:33;;;;;;;9.95;1.55;;;16.00;99.70;;;;;;5116006;28;20044;-73
2023/05/24 12:52:59;;;;;;;13.63;2.25;;;16.10;99.90;;;;;;5097980;28;20427;-72
2023/05/24 12:55:26;;;;;;;8.68;1.65;;;15.60;99.90;;;;;;5116414;28;20054;-70
2023/05/24 12:57:55;;;;;;;7.93;1.65;;;16.10;99.90;;;;;;5116535;28;20039;-71
2023/05/24 13:00:26;;;;;;;12.63;2.15;;;16.30;99.90;;;;;;5097732;28;20055;-72
2023/05/24 13:02:54;;;;;;;13.27;1.75;;;16.20;99.90;;;;;;5080200;28;20051;-71
2023/05/24 13:05:21;;;;;;;9.57;1.40;;;16.10;99.90;;;;;;5115934;28;20448;-73
2023/05/24 13:07:48;;;;;;;10.05;2.13;;;16.30;99.90;;;;;;5097673;28;20096;-70